Terminal Aerodrome Forecast
Issued by NWS

Home | Current Version | Previous Version | Text Only | Print | Product List | Glossary On
Versions: 1 2 3 4 5 6 7 8 9 10 11 12 13 14 15 16 17 18 19 20
490
FTUS46 KMTR 271731
TAFSNS
TAF
KSNS 271731Z 2718/2818 29006KT 6SM HZ FU BKN045
     FM272100 30012KT 6SM HZ FU SCT045
     FM280300 29006KT 6SM HZ FU BKN004 OVC009
     FM281200 00000KT 2SM BR VV002
     FM281500 VRB03KT 6SM HZ FEW002 SCT035=

USA.gov is the U.S. government's official web portal to all federal, state and local government web resources and services.